createdAt,value
2023-03-22T01:39:00.321Z,97.43
2023-03-22T01:40:00.391Z,100.60
2023-03-22T01:41:00.466Z,99.72
2023-03-22T01:42:00.483Z,100.04
2023-03-22T01:43:00.478Z,97.32
2023-03-22T01:44:00.487Z,98.05
2023-03-22T01:45:00.490Z,99.39
2023-03-22T01:46:00.595Z,101.88
2023-03-22T01:47:00.513Z,99.88
2023-03-22T01:48:00.524Z,99.89
2023-03-22T01:49:00.523Z,99.37
2023-03-22T01:50:00.511Z,98.96
2023-03-22T01:51:00.524Z,96.92
2023-03-22T01:52:00.497Z,97.27
2023-03-22T01:53:00.526Z,95.61
2023-03-22T01:54:00.555Z,94.58
2023-03-22T01:55:00.519Z,96.07
2023-03-22T01:56:00.530Z,98.73
2023-03-22T01:57:00.541Z,98.31
2023-03-22T01:58:00.554Z,99.12
2023-03-22T01:59:00.552Z,96.24
2023-03-22T02:00:00.595Z,98.43
2023-03-22T02:01:00.632Z,95.72
2023-03-22T02:02:00.566Z,96.44
2023-03-22T02:03:00.692Z,94.03
2023-03-22T02:04:00.614Z,99.09
2023-03-22T02:05:00.603Z,97.98
2023-03-22T02:06:00.614Z,96.55
2023-03-22T02:07:00.631Z,97.20
2023-03-22T02:08:00.643Z,94.07
2023-03-22T02:09:00.644Z,93.83
2023-03-22T02:10:00.635Z,95.68
2023-03-22T02:11:00.648Z,96.10
2023-03-22T02:12:00.653Z,93.15
2023-03-22T02:13:00.653Z,92.47
2023-03-22T02:14:00.664Z,93.41
2023-03-22T02:15:00.686Z,92.47
2023-03-22T02:16:00.757Z,91.16
2023-03-22T02:17:00.707Z,92.80
2023-03-22T02:18:00.822Z,94.78
2023-03-22T02:19:00.723Z,92.27
2023-03-22T02:20:00.689Z,95.17
2023-03-22T02:21:02.430Z,94.12
2023-03-22T02:22:00.729Z,93.79
2023-03-22T02:23:00.749Z,92.03
2023-03-22T02:24:00.746Z,91.91
2023-03-22T02:25:00.758Z,91.17
2023-03-22T02:26:00.754Z,85.67
2023-03-22T02:27:00.765Z,88.89
2023-03-22T02:28:00.774Z,86.75
2023-03-22T02:29:00.807Z,88.45
2023-03-22T02:30:00.837Z,87.75
2023-03-22T02:31:00.859Z,86.79
2023-03-22T02:32:00.804Z,87.97
2023-03-22T02:33:00.828Z,83.31
2023-03-22T02:34:00.810Z,84.77
2023-03-22T02:35:00.889Z,83.72
2023-03-22T02:36:00.856Z,88.66
2023-03-22T02:37:00.859Z,90.26
2023-03-22T02:38:00.870Z,90.70
2023-03-22T02:39:00.857Z,88.13
2023-03-22T02:40:00.876Z,86.98
2023-03-22T02:41:00.936Z,90.74
2023-03-22T02:42:00.892Z,86.07
2023-03-22T02:43:00.913Z,82.52
2023-03-22T02:44:00.977Z,89.65
2023-03-22T02:45:01.043Z,88.63
2023-03-22T02:46:01.201Z,86.44
2023-03-22T02:47:01.134Z,88.72
2023-03-22T02:48:01.190Z,86.98
2023-03-22T02:49:01.246Z,88.07
2023-03-22T02:50:01.326Z,87.87
2023-03-22T02:51:01.324Z,85.06
2023-03-22T02:52:01.375Z,83.62
2023-03-22T02:53:01.349Z,89.02
2023-03-22T02:54:01.381Z,86.35
2023-03-22T02:55:01.399Z,82.19
2023-03-22T02:56:01.466Z,87.56
2023-03-22T02:57:01.482Z,87.70
2023-03-22T02:58:01.536Z,87.50
2023-03-22T02:59:01.824Z,79.22
2023-03-22T03:00:01.689Z,82.60
2023-03-22T03:01:01.835Z,81.26
2023-03-22T03:02:01.807Z,82.09
2023-03-22T03:03:01.667Z,82.40
2023-03-22T03:04:01.681Z,83.74
2023-03-22T03:05:01.690Z,85.12
2023-03-22T03:06:01.728Z,86.62
2023-03-22T03:07:01.689Z,75.27
2023-03-22T03:08:01.714Z,83.84
2023-03-22T03:09:01.691Z,80.72
2023-03-22T03:10:01.749Z,85.02
2023-03-22T03:11:01.714Z,90.33
2023-03-22T03:12:01.779Z,88.05
2023-03-22T03:13:01.820Z,89.66
2023-03-22T03:14:01.874Z,90.91
2023-03-22T03:15:01.903Z,91.05
2023-03-22T03:16:02.028Z,91.43
2023-03-22T03:17:01.993Z,96.22
2023-03-22T03:18:02.031Z,94.18
2023-03-22T03:19:02.086Z,97.44
2023-03-22T03:20:02.149Z,96.91
2023-03-22T03:21:02.172Z,97.25
2023-03-22T03:22:02.208Z,95.25
2023-03-22T03:23:02.231Z,97.81
2023-03-22T03:24:02.291Z,100.41
2023-03-22T03:25:02.325Z,99.55
2023-03-22T03:26:02.360Z,98.98
2023-03-22T03:27:02.409Z,100.33
2023-03-22T03:28:02.395Z,102.16
2023-03-22T03:29:02.458Z,103.22
2023-03-22T03:30:02.488Z,104.09
2023-03-22T03:31:02.485Z,103.13
2023-03-22T03:32:02.550Z,103.00
2023-03-22T03:33:02.560Z,103.04
2023-03-22T03:34:02.580Z,102.35
2023-03-22T03:35:02.613Z,104.57
2023-03-22T03:36:02.644Z,103.63
2023-03-22T03:37:02.649Z,102.88
2023-03-22T03:38:02.668Z,106.30
2023-03-22T03:39:02.694Z,106.33
2023-03-22T03:40:02.747Z,104.94
2023-03-22T03:41:02.765Z,104.61
2023-03-22T03:42:02.815Z,107.57
2023-03-22T03:43:02.863Z,105.27
2023-03-22T03:44:02.938Z,106.59
2023-03-22T03:45:02.985Z,106.75
2023-03-22T03:46:03.050Z,105.80
2023-03-22T03:47:03.000Z,107.17
2023-03-22T03:48:03.089Z,107.26
2023-03-22T03:49:03.110Z,107.20
2023-03-22T03:50:03.186Z,111.00
2023-03-22T03:51:03.269Z,106.93
2023-03-22T03:52:03.346Z,108.87
2023-03-22T03:53:03.364Z,105.49
2023-03-22T03:54:03.436Z,107.30
2023-03-22T03:55:03.480Z,108.79
2023-03-22T03:56:03.548Z,105.54
2023-03-22T03:57:04.199Z,109.01
2023-03-22T03:58:03.675Z,108.25
2023-03-22T03:59:03.726Z,109.03
2023-03-22T04:00:03.811Z,107.99
2023-03-22T04:01:03.826Z,107.12
2023-03-22T04:02:03.941Z,108.66
2023-03-22T04:03:04.000Z,109.49
2023-03-22T04:04:04.097Z,109.53
2023-03-22T04:05:04.098Z,108.38
2023-03-22T04:06:04.154Z,108.44
2023-03-22T04:07:04.172Z,107.59
2023-03-22T04:08:04.204Z,108.42
2023-03-22T04:09:04.220Z,108.72
2023-03-22T04:10:04.254Z,108.53
2023-03-22T04:11:04.265Z,108.79
2023-03-22T04:12:04.286Z,107.22
2023-03-22T04:13:04.266Z,108.77
2023-03-22T04:14:04.298Z,107.09
2023-03-22T04:15:04.348Z,106.66
2023-03-22T04:16:04.336Z,107.62
2023-03-22T04:17:04.332Z,107.70
2023-03-22T04:18:04.330Z,110.40
2023-03-22T04:19:04.347Z,106.69
2023-03-22T04:20:05.901Z,107.42
2023-03-22T04:21:04.447Z,106.82
2023-03-22T04:22:04.500Z,108.94
2023-03-22T04:23:04.557Z,109.04
2023-03-22T04:24:04.656Z,110.05
2023-03-22T04:25:04.665Z,108.12
2023-03-22T04:26:04.718Z,108.63
2023-03-22T04:27:04.748Z,106.00
2023-03-22T04:28:04.799Z,107.33
2023-03-22T04:29:04.855Z,109.66
2023-03-22T04:30:04.922Z,109.37
2023-03-22T04:31:05.043Z,109.07
2023-03-22T04:32:05.033Z,108.32
2023-03-22T04:33:05.081Z,106.86
2023-03-22T04:34:05.123Z,108.97
2023-03-22T04:35:05.188Z,108.28
2023-03-22T04:36:05.240Z,108.05
2023-03-22T04:37:05.278Z,110.53
2023-03-22T04:38:05.290Z,105.37
2023-03-22T04:39:05.313Z,107.85
2023-03-22T04:40:05.313Z,108.67
2023-03-22T04:41:05.309Z,108.04
2023-03-22T04:42:05.320Z,108.85
2023-03-22T04:43:05.344Z,108.40
2023-03-22T04:44:05.317Z,107.38
2023-03-22T04:45:05.327Z,107.56
2023-03-22T04:46:05.452Z,106.78
2023-03-22T04:47:05.331Z,105.62
2023-03-22T04:48:05.369Z,105.52
2023-03-22T04:49:05.330Z,108.93
2023-03-22T04:50:05.368Z,104.13
2023-03-22T04:51:05.338Z,105.50
2023-03-22T04:52:05.352Z,105.43
2023-03-22T04:53:05.376Z,104.73
2023-03-22T04:54:05.414Z,107.07
2023-03-22T04:55:05.500Z,103.99
2023-03-22T04:56:05.481Z,105.15
2023-03-22T04:57:05.531Z,105.58
2023-03-22T04:58:05.611Z,104.44
2023-03-22T04:59:05.642Z,105.23
2023-03-22T05:00:05.694Z,104.16
2023-03-22T05:01:05.720Z,106.14
2023-03-22T05:02:05.789Z,104.42
2023-03-22T05:03:05.910Z,102.80
2023-03-22T05:04:05.859Z,103.08
2023-03-22T05:05:05.959Z,105.72
2023-03-22T05:06:05.999Z,104.93
2023-03-22T05:07:06.080Z,101.85
2023-03-22T05:08:06.091Z,105.26
2023-03-22T05:09:06.164Z,104.62
2023-03-22T05:10:06.222Z,105.30
2023-03-22T05:11:06.248Z,103.42
2023-03-22T05:12:06.318Z,105.10
2023-03-22T05:13:06.325Z,103.61
2023-03-22T05:14:06.367Z,105.66
2023-03-22T05:15:06.333Z,104.69
2023-03-22T05:16:06.386Z,106.14
2023-03-22T05:17:06.346Z,104.21
2023-03-22T05:18:06.347Z,104.47
2023-03-22T05:19:06.379Z,101.55
2023-03-22T05:20:06.365Z,103.53
2023-03-22T05:21:06.347Z,103.34
2023-03-22T05:22:06.363Z,103.31
2023-03-22T05:23:06.349Z,103.70
2023-03-22T05:24:06.365Z,102.53
2023-03-22T05:25:06.367Z,102.39
2023-03-22T05:26:06.405Z,100.48
2023-03-22T05:27:06.407Z,102.14
2023-03-22T05:28:06.444Z,100.50
2023-03-22T05:29:06.451Z,100.05
2023-03-22T05:30:06.540Z,99.65
2023-03-22T05:31:06.622Z,98.73
2023-03-22T05:32:06.496Z,99.83
2023-03-22T05:33:06.533Z,99.34
2023-03-22T05:34:06.571Z,98.54
2023-03-22T05:35:06.638Z,98.41
2023-03-22T05:36:06.716Z,100.82
2023-03-22T05:37:06.767Z,98.76
2023-03-22T05:38:06.856Z,98.44
2023-03-22T05:39:06.855Z,99.82
2023-03-22T05:40:06.929Z,100.12
2023-03-22T05:41:06.987Z,98.74
2023-03-22T05:42:07.036Z,99.08
2023-03-22T05:43:07.132Z,97.21
2023-03-22T05:44:07.179Z,98.51
2023-03-22T05:45:07.230Z,101.72
2023-03-22T05:46:07.266Z,98.76
2023-03-22T05:47:07.389Z,98.85
2023-03-22T05:48:07.499Z,98.28
2023-03-22T05:49:07.501Z,96.27
2023-03-22T05:50:07.504Z,99.66
2023-03-22T05:51:07.614Z,96.14
2023-03-22T05:52:07.656Z,99.01
2023-03-22T05:53:07.699Z,98.16
2023-03-22T05:54:07.802Z,95.20
2023-03-22T05:55:07.837Z,95.93
2023-03-22T05:56:07.897Z,96.25
2023-03-22T05:57:07.961Z,96.52
2023-03-22T05:58:08.032Z,95.73
2023-03-22T05:59:08.104Z,94.88
2023-03-22T06:00:08.142Z,92.10
2023-03-22T06:01:15.156Z,94.02
2023-03-22T06:02:08.221Z,94.49
2023-03-22T06:03:08.292Z,95.30
2023-03-22T06:04:08.180Z,94.87
2023-03-22T06:05:08.150Z,95.56
2023-03-22T06:06:08.124Z,92.17
2023-03-22T06:07:08.151Z,93.26
2023-03-22T06:08:08.142Z,92.41
2023-03-22T06:09:16.806Z,89.33
2023-03-22T06:10:09.135Z,89.74
2023-03-22T06:11:08.114Z,89.98
2023-03-22T06:12:08.103Z,90.51
2023-03-22T06:13:08.139Z,89.64
2023-03-22T06:14:08.107Z,89.97
2023-03-22T06:15:08.091Z,86.65
2023-03-22T06:16:08.169Z,87.58
2023-03-22T06:17:08.094Z,86.49
2023-03-22T06:18:08.097Z,87.12
2023-03-22T06:19:08.066Z,88.28
2023-03-22T06:20:08.082Z,86.34
2023-03-22T06:21:08.117Z,87.87
2023-03-22T06:22:08.117Z,81.35
2023-03-22T06:23:08.166Z,85.16
2023-03-22T06:24:08.137Z,80.91
2023-03-22T06:25:08.214Z,83.11
2023-03-22T06:26:08.152Z,81.70
2023-03-22T06:27:08.163Z,81.19
2023-03-22T06:28:08.877Z,76.72
2023-03-22T06:29:08.217Z,76.71
2023-03-22T06:30:08.187Z,76.04
2023-03-22T06:31:08.241Z,79.22
2023-03-22T06:32:08.195Z,76.66
2023-03-22T06:33:08.201Z,77.03
2023-03-22T06:34:08.203Z,76.82
2023-03-22T06:35:08.893Z,76.91
2023-03-22T06:36:08.228Z,74.58
2023-03-22T06:37:08.193Z,77.69
2023-03-22T06:38:08.237Z,52.70
2023-03-22T06:39:08.202Z,51.00
2023-03-22T06:40:08.456Z,45.09
2023-03-22T06:41:08.314Z,35.92
2023-03-22T06:42:08.317Z,31.56
2023-03-22T06:43:08.385Z,25.93
2023-03-22T06:44:08.333Z,25.64
2023-03-22T06:45:08.477Z,29.73
2023-03-22T06:46:15.499Z,26.45
2023-03-22T06:47:08.373Z,26.65
2023-03-22T06:48:08.475Z,23.26
2023-03-22T06:49:08.351Z,19.41
2023-03-22T06:50:08.445Z,15.00
2023-03-22T06:51:09.084Z,9.98
2023-03-22T06:52:08.400Z,25.45
2023-03-22T06:53:08.327Z,25.00
2023-03-22T06:54:08.323Z,25.77
2023-03-22T06:55:08.311Z,25.63
2023-03-22T06:56:08.422Z,27.09
2023-03-22T06:57:08.292Z,25.58
2023-03-22T06:58:08.304Z,28.69
2023-03-22T06:59:08.287Z,28.48
2023-03-22T07:00:08.314Z,25.39
2023-03-22T07:01:08.341Z,26.16
2023-03-22T07:02:08.250Z,25.61
2023-03-22T07:03:08.273Z,27.58
2023-03-22T07:04:08.270Z,26.97
2023-03-22T07:05:08.278Z,25.00
2023-03-22T07:06:08.434Z,27.55
2023-03-22T07:07:08.234Z,26.84
2023-03-22T07:08:08.192Z,32.12
2023-03-22T07:09:08.194Z,29.72
2023-03-22T07:10:08.220Z,33.77
2023-03-22T07:11:08.221Z,40.64
2023-03-22T07:12:08.185Z,44.79
2023-03-22T07:13:08.170Z,52.21
2023-03-22T07:14:08.159Z,56.34
2023-03-22T07:15:08.178Z,50.10
2023-03-22T07:16:08.173Z,49.73
2023-03-22T07:17:08.165Z,51.69
2023-03-22T07:18:08.168Z,52.66
2023-03-22T07:19:08.146Z,48.78
2023-03-22T07:20:08.149Z,49.83
2023-03-22T07:21:08.112Z,49.75
2023-03-22T07:22:08.130Z,55.43
2023-03-22T07:23:08.110Z,54.74
2023-03-22T07:24:08.111Z,50.06
2023-03-22T07:25:08.082Z,42.42
2023-03-22T07:26:08.146Z,42.03
2023-03-22T07:27:08.989Z,40.31
2023-03-22T07:28:08.054Z,40.42
2023-03-22T07:29:08.088Z,36.24
2023-03-22T07:30:09.721Z,37.35
2023-03-22T07:31:09.037Z,36.03
2023-03-22T07:32:08.089Z,30.05
2023-03-22T07:33:08.023Z,30.54
2023-03-22T07:34:08.050Z,27.80
2023-03-22T07:35:08.009Z,19.79
2023-03-22T07:36:08.009Z,25.40
2023-03-22T07:37:08.022Z,40.74
2023-03-22T07:38:08.016Z,61.20
2023-03-22T07:39:08.011Z,59.61
2023-03-22T07:40:08.015Z,66.19
2023-03-22T07:41:07.998Z,67.33
2023-03-22T07:42:08.043Z,70.44
2023-03-22T07:43:08.010Z,69.18
2023-03-22T07:44:17.590Z,67.22
2023-03-22T07:45:09.207Z,67.39
2023-03-22T07:46:07.978Z,67.88
2023-03-22T07:47:07.966Z,69.17
2023-03-22T07:48:08.045Z,71.16
2023-03-22T07:49:07.978Z,77.85
2023-03-22T07:50:07.910Z,78.43
2023-03-22T07:51:07.923Z,83.78
2023-03-22T07:52:07.918Z,89.38
2023-03-22T07:53:07.914Z,93.40
2023-03-22T07:54:08.005Z,100.40
2023-03-22T07:55:07.909Z,100.83
2023-03-22T07:56:07.954Z,106.77
2023-03-22T07:57:07.953Z,111.24
2023-03-22T07:58:07.995Z,113.35
2023-03-22T07:59:08.037Z,119.25
2023-03-22T08:00:08.052Z,122.42
2023-03-22T08:01:08.258Z,127.00
2023-03-22T08:02:08.224Z,130.30
2023-03-22T08:03:08.201Z,136.13
2023-03-22T08:04:08.188Z,142.65
2023-03-22T08:05:08.186Z,144.84
2023-03-22T08:06:08.203Z,146.49
2023-03-22T08:07:08.216Z,145.68
2023-03-22T08:08:08.220Z,154.84
2023-03-22T08:09:08.212Z,157.19
2023-03-22T08:10:08.215Z,158.54
2023-03-22T08:11:08.247Z,164.94
2023-03-22T08:12:08.233Z,169.47
2023-03-22T08:13:08.250Z,175.77
2023-03-22T08:14:08.227Z,178.18
2023-03-22T08:15:08.231Z,179.19
2023-03-22T08:16:08.439Z,182.31
2023-03-22T08:17:08.243Z,184.82
2023-03-22T08:18:08.211Z,186.89
2023-03-22T08:19:08.233Z,186.80
2023-03-22T08:20:08.219Z,191.05
2023-03-22T08:21:08.513Z,192.29
2023-03-22T08:22:08.221Z,196.28
2023-03-22T08:23:08.222Z,199.51
2023-03-22T08:24:08.235Z,202.27
2023-03-22T08:25:08.248Z,208.07
2023-03-22T08:26:08.279Z,206.87
2023-03-22T08:27:08.335Z,211.82
2023-03-22T08:28:08.352Z,213.89
2023-03-22T08:29:08.400Z,216.24
2023-03-22T08:30:08.622Z,218.69
2023-03-22T08:31:08.470Z,217.52
2023-03-22T08:32:08.502Z,205.49
2023-03-22T08:33:08.527Z,205.14
2023-03-22T08:34:08.531Z,199.83
2023-03-22T08:35:08.573Z,197.70
2023-03-22T08:36:08.635Z,192.62
2023-03-22T08:37:08.642Z,188.49
2023-03-22T08:38:08.679Z,182.14
2023-03-22T08:39:08.770Z,174.32
2023-03-22T08:40:08.747Z,175.27
2023-03-22T08:41:08.747Z,163.45
2023-03-22T08:42:08.964Z,146.32
2023-03-22T08:43:08.831Z,160.28
2023-03-22T08:44:08.898Z,168.12
2023-03-22T08:45:08.938Z,183.51
2023-03-22T08:46:09.588Z,181.84
2023-03-22T08:47:08.984Z,178.62
2023-03-22T08:48:09.099Z,184.76
2023-03-22T08:49:09.073Z,186.99
2023-03-22T08:50:09.077Z,189.25
2023-03-22T08:51:09.133Z,191.68
2023-03-22T08:52:09.179Z,193.94
2023-03-22T08:53:09.168Z,196.25
2023-03-22T08:54:09.208Z,199.30
2023-03-22T08:55:09.255Z,200.57
2023-03-22T08:56:09.241Z,202.33
2023-03-22T08:57:09.248Z,207.98
2023-03-22T08:58:09.326Z,210.33
2023-03-22T08:59:09.287Z,210.28
2023-03-22T09:00:09.281Z,214.03
2023-03-22T09:01:09.373Z,223.97
2023-03-22T09:02:09.547Z,230.64
2023-03-22T09:03:09.308Z,233.50
2023-03-22T09:04:10.749Z,234.16
2023-03-22T09:05:09.342Z,238.20
2023-03-22T09:06:09.297Z,245.30
2023-03-22T09:07:09.327Z,244.25
2023-03-22T09:08:18.156Z,245.98
2023-03-22T09:09:10.296Z,246.38
2023-03-22T09:10:09.356Z,247.79
2023-03-22T09:11:09.290Z,250.90
2023-03-22T09:12:09.286Z,257.65
2023-03-22T09:13:09.280Z,263.68
2023-03-22T09:14:09.253Z,250.00
2023-03-22T09:15:09.958Z,249.21
2023-03-22T09:16:09.282Z,245.31
2023-03-22T09:17:09.237Z,245.75
2023-03-22T09:18:09.248Z,244.26
2023-03-22T09:19:09.246Z,244.49
2023-03-22T09:20:12.960Z,243.64
2023-03-22T09:21:09.193Z,243.87
2023-03-22T09:22:09.202Z,245.29
2023-03-22T09:23:09.237Z,249.03
2023-03-22T09:24:09.172Z,253.35
2023-03-22T09:25:11.339Z,264.42
2023-03-22T09:26:09.200Z,244.48
2023-03-22T09:27:09.478Z,247.48
2023-03-22T09:28:09.217Z,252.37
2023-03-22T09:29:09.170Z,258.56
2023-03-22T09:30:09.150Z,269.32
2023-03-22T09:31:09.226Z,255.12
2023-03-22T09:32:09.469Z,250.00
2023-03-22T09:33:09.133Z,247.06
2023-03-22T09:34:09.152Z,246.71
2023-03-22T09:35:09.157Z,245.36
2023-03-22T09:36:09.142Z,238.48
2023-03-22T09:37:09.511Z,241.07
2023-03-22T09:38:09.118Z,243.97
2023-03-22T09:39:09.146Z,243.90
2023-03-22T09:40:09.096Z,243.74
2023-03-22T09:41:09.075Z,239.71
2023-03-22T09:42:09.506Z,237.54
2023-03-22T09:43:09.058Z,239.61
2023-03-22T09:44:09.066Z,234.90
2023-03-22T09:45:09.055Z,232.12
2023-03-22T09:46:09.147Z,228.35
2023-03-22T09:47:09.021Z,225.97
2023-03-22T09:48:09.053Z,223.08
2023-03-22T09:49:09.042Z,220.58
2023-03-22T09:50:09.024Z,216.77
2023-03-22T09:51:09.032Z,211.68
2023-03-22T09:52:09.545Z,209.49
2023-03-22T09:53:09.001Z,205.83
2023-03-22T09:54:09.009Z,203.25
2023-03-22T09:55:09.019Z,197.12
2023-03-22T09:56:08.968Z,199.65
2023-03-22T09:57:09.015Z,200.46
2023-03-22T09:58:08.971Z,198.21
2023-03-22T09:59:08.969Z,193.16
2023-03-22T10:00:08.972Z,179.81
2023-03-22T10:01:09.008Z,124.83
2023-03-22T10:02:08.976Z,135.98
2023-03-22T10:03:09.020Z,67.27
2023-03-22T10:04:09.016Z,0.00
2023-03-22T10:05:08.918Z,0.00
2023-03-22T10:06:08.913Z,20.38
2023-03-22T10:07:08.923Z,65.13
2023-03-22T10:08:08.905Z,75.78
2023-03-22T10:09:08.973Z,90.07
2023-03-22T10:10:08.927Z,88.30
2023-03-22T10:11:08.891Z,90.78
2023-03-22T10:12:08.863Z,92.62
2023-03-22T10:13:08.870Z,92.53
2023-03-22T10:14:08.897Z,86.05
2023-03-22T10:15:08.874Z,85.38
2023-03-22T10:16:09.508Z,80.37
2023-03-22T10:17:08.943Z,76.61
2023-03-22T10:18:08.968Z,73.36
2023-03-22T10:19:09.035Z,75.22
2023-03-22T10:20:09.094Z,80.02
2023-03-22T10:21:09.186Z,88.85
2023-03-22T10:22:09.169Z,90.60
2023-03-22T10:23:09.252Z,85.53
2023-03-22T10:24:09.273Z,79.98
2023-03-22T10:25:09.302Z,84.28
2023-03-22T10:26:09.300Z,84.88
2023-03-22T10:27:09.357Z,82.90
2023-03-22T10:28:09.374Z,79.99
2023-03-22T10:29:09.379Z,79.06
2023-03-22T10:30:09.362Z,83.71
2023-03-22T10:31:09.420Z,86.93
2023-03-22T10:32:09.405Z,95.40
2023-03-22T10:33:09.409Z,96.30
2023-03-22T10:34:09.435Z,97.72
2023-03-22T10:35:09.461Z,103.15
2023-03-22T10:36:09.543Z,101.09
2023-03-22T10:37:09.541Z,91.30
2023-03-22T10:38:09.558Z,86.09
2023-03-22T10:39:09.593Z,90.19
2023-03-22T10:40:09.671Z,96.73
2023-03-22T10:41:09.689Z,105.29
2023-03-22T10:42:10.029Z,107.75
2023-03-22T10:43:09.801Z,110.94
2023-03-22T10:44:09.763Z,107.68
2023-03-22T10:45:09.801Z,106.14
2023-03-22T10:46:09.824Z,111.24
2023-03-22T10:47:10.041Z,108.57
2023-03-22T10:48:10.012Z,100.23
2023-03-22T10:49:09.860Z,101.28
2023-03-22T10:50:09.902Z,103.66
2023-03-22T11:22:10.651Z,99.27
2023-03-22T11:23:10.676Z,103.83
2023-03-22T11:24:10.686Z,103.51
2023-03-22T11:25:11.565Z,98.23
2023-03-22T11:26:10.700Z,83.67
2023-03-22T11:27:10.704Z,85.90
2023-03-22T11:28:11.057Z,88.62
2023-03-22T11:29:10.873Z,88.87
2023-03-22T11:30:10.948Z,87.30
2023-03-22T11:31:10.934Z,83.93
2023-03-22T11:32:11.091Z,83.48
2023-03-22T11:33:11.610Z,83.14
2023-03-22T11:34:11.357Z,76.14
2023-03-22T11:35:11.188Z,81.83
2023-03-22T11:36:11.267Z,89.87
2023-03-22T11:37:13.375Z,90.48
2023-03-22T11:38:11.570Z,82.67
2023-03-22T11:39:11.221Z,91.10
2023-03-22T11:40:11.210Z,88.35
2023-03-22T11:41:11.224Z,92.05
2023-03-22T11:42:11.187Z,103.99
2023-03-22T11:43:11.170Z,104.06
2023-03-22T11:44:11.190Z,98.35
2023-03-22T11:45:11.189Z,89.68
2023-03-22T11:46:11.217Z,80.95
2023-03-22T11:47:11.212Z,85.89
2023-03-22T11:48:11.306Z,80.70
2023-03-22T11:49:11.158Z,82.75
2023-03-22T11:50:11.186Z,75.76
2023-03-22T11:51:11.146Z,74.39
2023-03-22T11:52:11.113Z,78.25
2023-03-22T11:53:11.155Z,77.18
2023-03-22T11:54:11.110Z,89.11
2023-03-22T11:55:11.116Z,92.04
2023-03-22T11:56:11.120Z,96.89
2023-03-22T11:57:11.132Z,96.17
2023-03-22T11:58:11.182Z,99.09
2023-03-22T11:59:11.248Z,93.45
2023-03-22T12:00:11.286Z,98.67
2023-03-22T12:01:11.394Z,92.50
2023-03-22T12:02:11.421Z,97.64
2023-03-22T12:03:11.520Z,97.75
2023-03-22T12:04:11.595Z,100.79
2023-03-22T12:05:11.810Z,102.14
2023-03-22T12:06:11.730Z,101.43
2023-03-22T12:07:11.714Z,100.21
2023-03-22T12:08:11.812Z,93.89
2023-03-22T12:09:11.828Z,62.24
2023-03-22T12:10:11.874Z,87.28
2023-03-22T12:11:11.933Z,99.93
2023-03-22T12:12:11.949Z,87.04
2023-03-22T12:13:11.991Z,84.09
2023-03-22T12:14:12.062Z,82.52
2023-03-22T12:15:12.074Z,84.31
2023-03-22T12:16:12.240Z,92.15
2023-03-22T12:17:12.183Z,92.40
2023-03-22T12:18:12.269Z,94.22
2023-03-22T12:19:12.308Z,94.33
2023-03-22T12:20:12.310Z,85.47
2023-03-22T12:21:12.437Z,60.56
2023-03-22T12:22:12.368Z,75.45
2023-03-22T12:23:12.563Z,86.28
2023-03-22T12:24:13.049Z,89.41
2023-03-22T12:25:12.449Z,85.62
2023-03-22T12:26:12.529Z,87.82
2023-03-22T12:27:12.510Z,83.34
2023-03-22T12:28:12.524Z,93.42
2023-03-22T12:29:12.582Z,94.65
2023-03-22T12:30:12.583Z,89.80
2023-03-22T12:31:12.692Z,101.57
2023-03-22T12:32:12.722Z,104.91
2023-03-22T12:33:13.117Z,110.28
2023-03-22T12:34:12.695Z,112.78
2023-03-22T12:35:17.777Z,117.97
2023-03-22T12:36:13.794Z,118.20
2023-03-22T12:37:12.750Z,118.92
2023-03-22T12:38:13.096Z,120.61
2023-03-22T12:39:12.691Z,123.63
2023-03-22T12:40:12.661Z,128.71
2023-03-22T12:41:12.665Z,133.44
2023-03-22T12:43:12.632Z,136.77
2023-03-22T12:44:12.693Z,137.05
2023-03-22T12:45:12.634Z,137.66
2023-03-22T12:46:12.637Z,139.38
2023-03-22T12:47:12.771Z,140.38
2023-03-22T12:48:12.693Z,143.95
2023-03-22T12:49:12.626Z,143.09
2023-03-22T12:50:12.602Z,144.15
2023-03-22T12:51:12.588Z,146.28
2023-03-22T12:52:12.616Z,147.60
2023-03-22T12:53:12.630Z,149.41
2023-03-22T12:54:12.650Z,149.09
2023-03-22T12:55:12.662Z,150.05
2023-03-22T12:56:12.701Z,151.61
2023-03-22T12:57:12.734Z,151.29
2023-03-22T12:58:12.713Z,154.21
2023-03-22T12:59:12.746Z,153.19
2023-03-22T13:00:12.837Z,154.05
2023-03-22T13:01:12.880Z,153.67
2023-03-22T13:02:12.860Z,155.68
2023-03-22T13:03:13.049Z,155.72
2023-03-22T13:04:12.979Z,155.75
2023-03-22T13:05:12.942Z,156.37
2023-03-22T13:06:13.009Z,157.92
2023-03-22T13:07:13.006Z,156.95
2023-03-22T13:08:13.055Z,158.48
2023-03-22T13:09:13.130Z,157.65
2023-03-22T13:10:13.132Z,158.25
2023-03-22T13:11:13.108Z,157.65
2023-03-22T13:12:13.130Z,157.99
2023-03-22T13:13:13.154Z,157.61
2023-03-22T13:14:13.195Z,158.07
2023-03-22T13:15:13.217Z,158.36
2023-03-22T13:16:13.338Z,159.90
2023-03-22T13:17:13.279Z,159.25
2023-03-22T13:18:13.428Z,158.96
2023-03-22T13:19:13.368Z,159.98
2023-03-22T13:20:13.578Z,159.65
2023-03-22T13:21:13.381Z,163.51
2023-03-22T13:22:13.411Z,161.52
2023-03-22T13:23:13.462Z,160.12
2023-03-22T13:24:13.465Z,162.51
2023-03-22T13:52:14.328Z,164.78
2023-03-22T13:53:14.349Z,164.51
2023-03-22T13:54:14.383Z,167.73
2023-03-22T13:55:15.197Z,164.89
2023-03-22T13:56:14.449Z,165.18
2023-03-22T13:57:14.484Z,165.15
2023-03-22T13:58:14.538Z,166.62
2023-03-22T13:59:14.607Z,167.55
2023-03-22T14:00:15.569Z,168.38
2023-03-22T14:01:14.606Z,166.19
2023-03-22T14:02:14.607Z,167.16
2023-03-22T14:03:14.776Z,169.06
2023-03-22T14:04:15.109Z,168.43
2023-03-22T14:05:14.691Z,165.28
2023-03-22T14:06:14.754Z,169.24
2023-03-22T14:07:14.747Z,168.07
2023-03-22T14:08:14.760Z,173.26
2023-03-22T14:09:14.727Z,174.37
2023-03-22T14:10:14.716Z,177.45
2023-03-22T14:11:14.720Z,177.20
2023-03-22T14:12:14.717Z,178.97
2023-03-22T14:13:14.684Z,180.32
2023-03-22T14:14:15.145Z,183.26
2023-03-22T14:15:14.709Z,183.81
2023-03-22T14:16:14.769Z,186.34
2023-03-22T14:17:14.723Z,187.99
2023-03-22T14:18:14.796Z,189.96
2023-03-22T14:19:14.780Z,196.10
2023-03-22T14:20:14.712Z,202.68
2023-03-22T14:21:14.711Z,211.88
2023-03-22T14:48:46.157Z,25.00
2023-03-22T14:49:46.194Z,25.00
2023-03-22T14:50:46.185Z,25.00
2023-03-22T14:51:46.162Z,25.00
2023-03-22T14:54:46.132Z,25.78
2023-03-22T14:56:46.103Z,25.21
2023-03-22T14:57:46.126Z,24.88
2023-03-22T14:58:46.105Z,25.86
2023-03-22T15:01:46.165Z,25.43
2023-03-22T15:02:46.183Z,28.06
2023-03-22T15:03:46.075Z,26.88
2023-03-22T15:07:46.033Z,29.21
2023-03-22T15:08:46.046Z,26.31
2023-03-22T15:09:46.035Z,27.71
2023-03-22T15:10:46.049Z,29.61
2023-03-22T15:11:46.056Z,30.33
2023-03-22T15:17:46.926Z,28.44
2023-03-22T15:19:45.980Z,25.00
2023-03-22T15:20:46.396Z,25.70
2023-03-22T15:21:45.958Z,26.86
2023-03-22T15:22:45.955Z,27.46
2023-03-22T15:23:45.966Z,26.17
2023-03-22T15:24:45.905Z,27.02
2023-03-22T15:25:45.958Z,30.18
2023-03-22T15:26:46.003Z,30.71
2023-03-22T15:32:46.116Z,25.24
2023-03-22T15:33:46.160Z,25.66
2023-03-22T15:34:46.228Z,25.00
2023-03-22T15:35:46.375Z,28.48
2023-03-22T15:36:46.328Z,25.10
2023-03-22T15:37:46.399Z,26.96
2023-03-22T15:38:46.709Z,25.70
2023-03-22T15:39:46.570Z,26.71
2023-03-22T15:40:46.565Z,26.32
2023-03-22T15:41:46.649Z,27.24
2023-03-22T15:42:46.716Z,25.33
2023-03-22T15:43:46.803Z,28.86
2023-03-22T15:44:46.843Z,25.00
2023-03-22T15:45:46.897Z,25.39
2023-03-22T15:46:46.958Z,28.51
2023-03-22T15:47:47.028Z,26.15
2023-03-22T15:48:47.079Z,25.00
2023-03-22T15:49:47.143Z,25.17
2023-03-22T15:50:47.142Z,25.51
2023-03-22T15:54:47.175Z,27.35
2023-03-22T15:55:47.185Z,25.77
2023-03-22T15:56:47.210Z,27.97
2023-03-22T15:57:47.314Z,28.12
2023-03-22T15:58:47.360Z,27.87
2023-03-22T15:59:47.367Z,26.10
2023-03-22T16:00:47.491Z,25.36
2023-03-22T16:01:47.472Z,27.35
2023-03-22T16:02:47.557Z,28.42
2023-03-22T16:03:47.632Z,27.97
2023-03-22T16:04:47.682Z,25.00
2023-03-22T16:05:47.775Z,27.57
2023-03-22T16:06:47.816Z,27.08
2023-03-22T16:07:47.855Z,26.47